Time;durP1;ratioP1;P1;durP2;ratioP2;P2;SDS_P1;SDS_P2;PMS_P1;PMS_P2;Temp;Humidity;BMP_temperature;BMP_pressure;BME280_temperature;BME280_humidity;BME280_pressure;Samples;Min_cycle;Max_cycle;Signal;HPM_P1;HPM_P2
2022/09/21 00:01:09;;;;;;;4.85;3.35;;;15.30;68.00;;;;;;5001559;28;20124;-80
2022/09/21 00:03:36;;;;;;;5.32;3.22;;;15.30;68.00;;;;;;5012511;28;20061;-80
2022/09/21 00:06:03;;;;;;;8.20;4.05;;;15.30;68.00;;;;;;4994940;28;20117;-81
2022/09/21 00:08:29;;;;;;;6.97;3.30;;;15.20;67.90;;;;;;4995072;28;20029;-80
2022/09/21 00:10:55;;;;;;;5.95;3.55;;;15.20;68.20;;;;;;5004473;28;20223;-80
2022/09/21 00:13:20;;;;;;;8.43;3.30;;;15.20;68.30;;;;;;4994845;28;20033;-80
2022/09/21 00:15:46;;;;;;;6.47;2.72;;;15.20;68.40;;;;;;4996317;28;20034;-80
2022/09/21 00:18:12;;;;;;;7.55;3.97;;;15.10;68.30;;;;;;4995897;28;20027;-80
2022/09/21 00:20:42;;;;;;;8.63;3.97;;;15.20;68.20;;;;;;4980919;28;20026;-80
2022/09/21 00:23:08;;;;;;;5.37;3.20;;;15.10;68.40;;;;;;4999991;28;20019;-80
2022/09/21 00:25:33;;;;;;;5.38;3.50;;;15.00;68.70;;;;;;4999161;28;20049;-80
2022/09/21 00:27:59;;;;;;;5.25;3.67;;;15.00;68.70;;;;;;4999323;28;20363;-80
2022/09/21 00:30:25;;;;;;;4.60;3.28;;;15.00;68.80;;;;;;4999985;28;20470;-80
2022/09/21 00:32:52;;;;;;;7.40;3.70;;;14.90;68.80;;;;;;4999944;28;20038;-80
2022/09/21 00:35:18;;;;;;;6.82;3.85;;;15.00;68.90;;;;;;4997864;28;20030;-80
2022/09/21 00:37:43;;;;;;;7.28;3.95;;;15.00;68.70;;;;;;4999446;28;20508;-80
2022/09/21 00:40:10;;;;;;;7.13;3.38;;;14.90;68.90;;;;;;5000091;28;20061;-80
2022/09/21 00:42:36;;;;;;;4.20;3.55;;;14.90;68.90;;;;;;4999329;28;20036;-80
2022/09/21 00:45:03;;;;;;;7.95;3.83;;;14.90;68.80;;;;;;4980528;28;20080;-80
2022/09/21 00:47:40;;;;;;;8.43;3.95;;;14.90;68.70;;;;;;4999415;28;20030;-80
2022/09/21 00:50:10;;;;;;;4.63;3.30;;;14.90;68.60;;;;;;4999656;28;20561;-80
2022/09/21 00:52:40;;;;;;;6.18;3.47;;;14.90;68.90;;;;;;4999320;28;20041;-80
2022/09/21 00:55:10;;;;;;;6.88;3.97;;;14.80;68.80;;;;;;4997941;28;20061;-80
2022/09/21 00:57:36;;;;;;;5.70;3.45;;;14.90;69.00;;;;;;4999532;28;20057;-80
2022/09/21 01:00:07;;;;;;;5.93;3.72;;;14.80;68.90;;;;;;5014683;28;20556;-80
2022/09/21 01:02:36;;;;;;;6.25;3.45;;;14.80;68.90;;;;;;4999163;28;20026;-81
2022/09/21 01:05:04;;;;;;;5.25;3.70;;;14.80;69.00;;;;;;4996422;28;20027;-81
2022/09/21 01:07:33;;;;;;;4.95;3.40;;;14.70;69.10;;;;;;5014134;28;20108;-81
2022/09/21 01:10:07;;;;;;;5.30;3.35;;;14.80;69.00;;;;;;5017480;28;20026;-81
2022/09/21 01:12:50;;;;;;;6.65;3.53;;;14.70;69.20;;;;;;5000620;28;20065;-80
2022/09/21 01:15:36;;;;;;;5.13;3.55;;;14.70;69.20;;;;;;4981424;28;20085;-80
2022/09/21 01:18:14;;;;;;;6.47;3.75;;;14.70;69.00;;;;;;4998538;28;20069;-80
2022/09/21 01:20:59;;;;;;;6.32;3.50;;;14.70;69.10;;;;;;5014468;28;20027;-80
2022/09/21 01:23:47;;;;;;;6.47;3.60;;;14.60;69.20;;;;;;5013207;28;20054;-80
2022/09/21 01:26:33;;;;;;;4.72;3.25;;;14.60;69.30;;;;;;5050127;28;20033;-80
2022/09/21 01:29:23;;;;;;;6.68;3.80;;;14.60;69.30;;;;;;5011624;28;20026;-80
2022/09/21 01:32:05;;;;;;;4.45;3.00;;;14.60;69.30;;;;;;5012861;28;20513;-80
2022/09/21 01:34:48;;;;;;;6.25;4.28;;;14.50;69.50;;;;;;4998916;28;20030;-80
2022/09/21 01:37:20;;;;;;;4.60;3.55;;;14.50;69.50;;;;;;4998560;28;20030;-80
2022/09/21 01:39:51;;;;;;;5.03;3.80;;;14.50;69.50;;;;;;4998659;28;20418;-80
2022/09/21 01:42:24;;;;;;;6.63;3.38;;;14.40;69.50;;;;;;5013749;28;20029;-80
2022/09/21 01:44:50;;;;;;;5.22;3.30;;;14.40;69.70;;;;;;4997461;28;20051;-80
2022/09/21 01:47:17;;;;;;;6.97;3.55;;;14.40;69.80;;;;;;4998147;28;20022;-79
2022/09/21 01:49:52;;;;;;;6.55;3.42;;;14.40;69.60;;;;;;4998670;28;20089;-80
2022/09/21 01:52:32;;;;;;;4.70;3.45;;;14.40;69.70;;;;;;4996789;28;20394;-80
2022/09/21 01:55:02;;;;;;;6.82;3.72;;;14.30;69.70;;;;;;4997117;28;20042;-80
2022/09/21 01:57:42;;;;;;;5.63;3.20;;;14.30;69.60;;;;;;4998198;28;20030;-80
2022/09/21 02:00:08;;;;;;;5.22;3.45;;;14.40;69.70;;;;;;5013112;28;20125;-80
2022/09/21 02:02:54;;;;;;;6.70;3.85;;;14.30;69.80;;;;;;4997941;28;20035;-80
2022/09/21 02:05:24;;;;;;;7.22;4.03;;;14.30;70.00;;;;;;4997727;28;20486;-80
2022/09/21 02:07:51;;;;;;;9.93;4.28;;;14.30;69.70;;;;;;4996807;28;20505;-80
2022/09/21 02:10:45;;;;;;;6.60;3.92;;;14.30;69.70;;;;;;5003649;28;20025;-80
2022/09/21 02:13:15;;;;;;;5.47;3.70;;;14.20;69.90;;;;;;5017513;28;20034;-79
2022/09/21 02:15:49;;;;;;;5.35;3.75;;;14.30;70.00;;;;;;5017189;28;20036;-79
2022/09/21 02:18:34;;;;;;;5.75;3.60;;;14.30;69.90;;;;;;5008367;28;20026;-78
2022/09/21 02:21:07;;;;;;;5.47;3.67;;;14.20;69.70;;;;;;5012173;28;20034;-79
2022/09/21 02:23:45;;;;;;;7.07;3.92;;;14.20;70.00;;;;;;4996700;28;20611;-79
2022/09/21 02:26:21;;;;;;;7.85;4.00;;;14.20;69.90;;;;;;4996053;28;20049;-79
2022/09/21 02:28:54;;;;;;;5.07;3.22;;;14.20;69.80;;;;;;4997477;28;20026;-79
2022/09/21 02:31:26;;;;;;;4.28;3.47;;;14.20;69.80;;;;;;4997407;28;20038;-79
2022/09/21 02:34:33;;;;;;;7.85;4.03;;;14.20;70.00;;;;;;4997564;28;20026;-78
2022/09/21 02:37:21;;;;;;;6.82;2.95;;;14.20;70.00;;;;;;5016996;28;20022;-78
2022/09/21 02:40:02;;;;;;;6.57;3.85;;;14.20;69.80;;;;;;5023900;28;20061;-78
2022/09/21 02:42:33;;;;;;;5.78;3.50;;;14.20;69.90;;;;;;4997178;28;20053;-78
2022/09/21 02:45:14;;;;;;;8.88;3.63;;;14.30;69.90;;;;;;4997632;28;20073;-78
2022/09/21 02:47:58;;;;;;;7.97;3.53;;;14.30;69.70;;;;;;4997459;28;20111;-79
2022/09/21 02:50:32;;;;;;;7.22;3.53;;;14.30;69.90;;;;;;4995656;28;20517;-78
2022/09/21 02:53:00;;;;;;;6.35;3.95;;;14.30;69.70;;;;;;4997083;28;20094;-78
2022/09/21 02:55:26;;;;;;;7.68;4.00;;;14.30;69.70;;;;;;5011796;28;20038;-79
2022/09/21 02:57:54;;;;;;;5.25;3.40;;;14.30;69.80;;;;;;4996208;28;20493;-78
2022/09/21 03:00:20;;;;;;;10.88;3.65;;;14.30;69.70;;;;;;4995982;28;20031;-79
2022/09/21 03:02:45;;;;;;;5.75;3.40;;;14.40;69.70;;;;;;4995480;28;20030;-79
2022/09/21 03:05:13;;;;;;;5.57;3.40;;;14.40;69.90;;;;;;4996710;28;20030;-79
2022/09/21 03:07:41;;;;;;;6.45;3.20;;;14.40;69.70;;;;;;5011942;28;20061;-79
2022/09/21 03:10:08;;;;;;;4.88;2.97;;;14.40;69.70;;;;;;5001307;28;20416;-79
2022/09/21 03:12:34;;;;;;;7.70;3.85;;;14.40;69.80;;;;;;4998566;28;20608;-78
2022/09/21 03:14:59;;;;;;;6.95;3.53;;;14.40;69.60;;;;;;5015589;28;20065;-79
2022/09/21 03:17:26;;;;;;;5.55;3.53;;;14.40;69.60;;;;;;5014041;28;20093;-79
2022/09/21 03:19:53;;;;;;;6.40;3.75;;;14.40;69.80;;;;;;4995595;28;20164;-79
2022/09/21 03:22:23;;;;;;;5.40;3.20;;;14.40;69.80;;;;;;4996481;28;20022;-79
2022/09/21 03:25:00;;;;;;;;;;;;;;;;;;;;;
2022/09/21 03:27:26;;;;;;;6.55;3.78;;;14.30;69.80;;;;;;4996363;28;20040;-79
2022/09/21 03:29:52;;;;;;;4.38;2.90;;;14.30;69.80;;;;;;5012121;28;20062;-78
2022/09/21 03:32:18;;;;;;;5.68;3.17;;;14.30;69.70;;;;;;4994305;28;20050;-79
2022/09/21 03:34:43;;;;;;;5.28;2.95;;;14.30;69.90;;;;;;4994483;28;20415;-79
2022/09/21 03:37:10;;;;;;;7.70;3.45;;;14.30;69.80;;;;;;4995278;28;20093;-78
2022/09/21 03:39:35;;;;;;;7.40;3.67;;;14.30;70.00;;;;;;4995125;28;20026;-79
2022/09/21 03:42:03;;;;;;;8.18;3.83;;;14.30;69.90;;;;;;4996108;28;20398;-78
2022/09/21 03:44:29;;;;;;;5.28;3.35;;;14.30;70.00;;;;;;4997303;28;20081;-78
2022/09/21 03:46:56;;;;;;;6.15;3.35;;;14.30;70.10;;;;;;5009304;28;20027;-79
2022/09/21 03:49:22;;;;;;;4.93;3.13;;;14.30;70.20;;;;;;4994898;28;20030;-79
2022/09/21 03:51:48;;;;;;;5.03;3.60;;;14.30;70.00;;;;;;4993975;28;20033;-79
2022/09/21 03:54:13;;;;;;;5.85;3.03;;;14.20;70.00;;;;;;4996199;28;20053;-79
2022/09/21 03:56:39;;;;;;;8.30;3.90;;;14.20;69.90;;;;;;4994635;28;20034;-79
2022/09/21 03:59:05;;;;;;;4.70;3.05;;;14.20;70.00;;;;;;5011618;28;20104;-79
2022/09/21 04:01:30;;;;;;;6.38;3.45;;;14.20;70.00;;;;;;5011227;28;20030;-79
2022/09/21 04:03:56;;;;;;;4.65;3.33;;;14.20;70.50;;;;;;4996402;28;20461;-79
2022/09/21 04:06:22;;;;;;;7.63;3.10;;;14.20;70.30;;;;;;5010812;28;20026;-79
2022/09/21 04:08:47;;;;;;;5.10;2.60;;;14.20;70.20;;;;;;4994353;28;20040;-78
2022/09/21 04:11:16;;;;;;;4.72;3.20;;;14.20;70.40;;;;;;5008746;28;20030;-79
2022/09/21 04:13:41;;;;;;;4.22;3.28;;;14.20;70.30;;;;;;5014423;28;20493;-79
2022/09/21 04:16:08;;;;;;;4.88;3.20;;;14.20;70.50;;;;;;4997440;28;20415;-79
2022/09/21 04:18:34;;;;;;;5.53;3.10;;;14.20;70.50;;;;;;5000346;28;20089;-79
2022/09/21 04:21:00;;;;;;;6.13;3.50;;;14.20;70.50;;;;;;5010999;28;20230;-79
2022/09/21 04:23:26;;;;;;;6.75;3.35;;;14.20;70.30;;;;;;5010975;28;20123;-78
2022/09/21 04:25:54;;;;;;;8.65;3.85;;;14.20;70.20;;;;;;4995559;28;20026;-79
2022/09/21 04:28:20;;;;;;;5.45;3.42;;;14.20;70.40;;;;;;4993759;28;20034;-79
2022/09/21 04:30:45;;;;;;;6.15;3.38;;;14.10;70.30;;;;;;5010494;28;20037;-80
2022/09/21 04:33:12;;;;;;;8.10;3.47;;;14.10;70.50;;;;;;4996008;28;20034;-74
2022/09/21 04:35:37;;;;;;;6.80;3.17;;;14.10;70.30;;;;;;4994140;28;20041;-74
2022/09/21 04:38:03;;;;;;;6.80;3.70;;;14.10;70.40;;;;;;5010560;28;20034;-73
2022/09/21 04:40:29;;;;;;;6.45;3.15;;;14.10;70.50;;;;;;5010469;28;20398;-74
2022/09/21 04:42:55;;;;;;;4.40;2.95;;;14.20;70.90;;;;;;4995489;28;20663;-73
2022/09/21 04:45:21;;;;;;;7.40;3.22;;;14.20;70.80;;;;;;4995452;28;20144;-73
2022/09/21 04:47:47;;;;;;;6.15;3.72;;;14.20;70.60;;;;;;4994594;28;20068;-74
2022/09/21 04:50:14;;;;;;;4.63;3.17;;;14.20;70.60;;;;;;5010609;28;20513;-73
2022/09/21 04:52:40;;;;;;;4.25;2.63;;;14.20;70.50;;;;;;4995438;28;20054;-77
2022/09/21 04:55:06;;;;;;;5.70;3.30;;;14.20;70.80;;;;;;5010606;28;20033;-77
2022/09/21 04:57:32;;;;;;;4.32;3.65;;;14.30;70.30;;;;;;5010148;28;20030;-76
2022/09/21 04:59:57;;;;;;;5.05;3.15;;;14.30;70.40;;;;;;4993003;28;20094;-75
2022/09/21 05:02:23;;;;;;;5.45;3.17;;;14.20;70.40;;;;;;5007033;28;20135;-77
2022/09/21 05:04:49;;;;;;;6.25;3.08;;;14.20;70.60;;;;;;4997335;28;20034;-77
2022/09/21 05:07:15;;;;;;;6.55;3.45;;;14.30;70.60;;;;;;4995208;28;20080;-74
2022/09/21 05:12:25;;;;;;;3.95;3.40;;;14.20;70.40;;;;;;5016209;28;20041;-75
2022/09/21 05:14:50;;;;;;;5.18;3.50;;;14.20;70.70;;;;;;5018016;28;20029;-75
2022/09/21 05:17:16;;;;;;;5.43;3.63;;;14.20;71.00;;;;;;5007023;28;20030;-75
2022/09/21 05:19:42;;;;;;;6.00;3.25;;;14.10;70.60;;;;;;4999569;28;20080;-77
2022/09/21 05:22:08;;;;;;;4.15;3.20;;;14.20;70.40;;;;;;5033012;28;20466;-79
2022/09/21 05:24:36;;;;;;;4.70;2.80;;;14.10;70.70;;;;;;5031725;28;20034;-75
2022/09/21 05:27:01;;;;;;;5.70;3.05;;;14.10;70.80;;;;;;4997490;28;20045;-73
2022/09/21 05:29:27;;;;;;;5.68;2.92;;;14.10;71.00;;;;;;5013381;28;20034;-73
2022/09/21 05:32:35;;;;;;;4.03;3.58;;;14.00;71.10;;;;;;4987110;28;20659;-73
2022/09/21 05:35:27;;;;;;;5.88;4.03;;;14.00;71.10;;;;;;4919375;29;20064;-73
2022/09/21 05:38:31;;;;;;;6.70;3.75;;;14.00;71.20;;;;;;4933486;29;20040;-73
2022/09/21 05:40:57;;;;;;;6.47;3.53;;;14.00;71.20;;;;;;4970055;28;20035;-73
2022/09/21 05:43:23;;;;;;;6.07;3.50;;;14.00;71.20;;;;;;4999908;28;20572;-74
2022/09/21 05:46:02;;;;;;;5.32;3.67;;;14.00;71.30;;;;;;5012733;28;20502;-72
2022/09/21 05:48:39;;;;;;;4.65;3.30;;;14.00;71.20;;;;;;4996876;28;20038;-72
2022/09/21 05:51:30;;;;;;;11.15;4.50;;;13.90;71.00;;;;;;5013621;28;20042;-72
2022/09/21 05:54:00;;;;;;;4.13;3.22;;;13.90;71.40;;;;;;4990535;28;20042;-72
2022/09/21 05:56:41;;;;;;;5.97;3.85;;;13.90;71.30;;;;;;4998274;28;20112;-72
2022/09/21 05:59:18;;;;;;;9.73;4.10;;;13.90;71.30;;;;;;4997893;28;20036;-72
2022/09/21 06:02:24;;;;;;;5.45;4.10;;;13.80;71.20;;;;;;4997133;28;20498;-74
2022/09/21 06:04:53;;;;;;;5.95;3.67;;;13.80;71.10;;;;;;5013477;28;20030;-72
2022/09/21 06:07:18;;;;;;;6.20;3.65;;;13.80;71.40;;;;;;4998155;28;20031;-72
2022/09/21 06:09:44;;;;;;;7.38;4.30;;;13.80;71.20;;;;;;4999028;28;20030;-72
2022/09/21 06:12:13;;;;;;;8.65;4.43;;;13.80;71.20;;;;;;5017600;28;20030;-72
2022/09/21 06:14:38;;;;;;;7.85;5.05;;;13.80;71.20;;;;;;4990073;28;20026;-72
2022/09/21 06:17:04;;;;;;;5.85;4.22;;;13.80;70.80;;;;;;5012768;28;20460;-72
2022/09/21 06:19:30;;;;;;;6.13;4.30;;;13.80;71.00;;;;;;4997611;28;20057;-72
2022/09/21 06:21:55;;;;;;;7.53;4.13;;;13.80;71.10;;;;;;4997728;28;20074;-72
2022/09/21 06:24:21;;;;;;;8.73;4.40;;;13.80;71.10;;;;;;5012737;28;20038;-72
2022/09/21 06:26:47;;;;;;;6.70;3.92;;;13.80;71.10;;;;;;4997796;28;20084;-72
2022/09/21 06:29:12;;;;;;;6.00;4.10;;;13.80;70.90;;;;;;4997626;28;20027;-72
2022/09/21 06:31:38;;;;;;;10.07;4.78;;;13.90;71.00;;;;;;4998014;28;20022;-72
2022/09/21 06:34:03;;;;;;;4.75;3.70;;;14.00;70.90;;;;;;4997562;28;20409;-72
2022/09/21 06:36:30;;;;;;;6.68;4.03;;;14.00;70.90;;;;;;4997631;28;20032;-72
2022/09/21 06:38:55;;;;;;;7.25;4.18;;;14.00;70.90;;;;;;5006521;28;20447;-72
2022/09/21 06:41:21;;;;;;;6.43;4.25;;;14.00;70.90;;;;;;4997601;28;20026;-72
2022/09/21 06:43:46;;;;;;;7.15;4.32;;;14.00;71.00;;;;;;4997248;28;20077;-72
2022/09/21 06:46:12;;;;;;;5.93;4.40;;;14.00;71.00;;;;;;4997831;28;20034;-72
2022/09/21 06:48:38;;;;;;;6.50;3.92;;;14.00;70.90;;;;;;4997304;28;20056;-72
2022/09/21 06:51:05;;;;;;;5.72;3.67;;;14.10;71.00;;;;;;5012293;28;20520;-72
2022/09/21 06:53:32;;;;;;;7.80;3.60;;;14.30;70.30;;;;;;4997241;28;20026;-72
2022/09/21 06:56:06;;;;;;;5.70;4.03;;;14.50;70.00;;;;;;4997033;28;20029;-72
2022/09/21 06:58:33;;;;;;;6.57;4.63;;;14.40;70.00;;;;;;4997193;28;20029;-72
2022/09/21 07:01:09;;;;;;;5.53;3.70;;;14.50;69.80;;;;;;4997617;28;20029;-72
2022/09/21 07:03:36;;;;;;;6.75;3.53;;;14.50;69.60;;;;;;4997092;28;20077;-72
2022/09/21 07:06:01;;;;;;;6.93;3.47;;;14.40;69.80;;;;;;4997085;28;20471;-72
2022/09/21 07:08:27;;;;;;;4.60;3.50;;;14.40;69.90;;;;;;4987498;28;20084;-72
2022/09/21 07:10:56;;;;;;;5.93;4.13;;;14.50;69.90;;;;;;5007210;28;20030;-72
2022/09/21 07:13:22;;;;;;;6.45;3.65;;;14.50;69.70;;;;;;5007982;28;20033;-72
2022/09/21 07:15:48;;;;;;;7.03;4.03;;;14.50;69.80;;;;;;4996685;28;20030;-72
2022/09/21 07:18:14;;;;;;;6.45;3.75;;;14.60;69.70;;;;;;4997192;28;20040;-72
2022/09/21 07:20:40;;;;;;;5.25;4.10;;;14.90;69.10;;;;;;4996778;28;20437;-72
2022/09/21 07:23:14;;;;;;;4.32;3.35;;;15.60;67.40;;;;;;5011884;28;20027;-72
2022/09/21 07:25:49;;;;;;;6.50;3.75;;;16.40;65.10;;;;;;5012077;28;20042;-72
2022/09/21 07:28:15;;;;;;;7.45;3.83;;;17.30;62.50;;;;;;4996787;28;20030;-72
2022/09/21 07:30:42;;;;;;;6.43;3.50;;;18.30;60.00;;;;;;4995900;28;20107;-72
2022/09/21 07:33:07;;;;;;;5.78;3.33;;;19.50;55.70;;;;;;4996495;28;20028;-72
2022/09/21 07:35:34;;;;;;;5.32;3.30;;;20.60;53.20;;;;;;4996440;28;20045;-73
2022/09/21 07:38:02;;;;;;;8.00;3.83;;;21.50;50.70;;;;;;4996534;28;20495;-73
2022/09/21 07:40:28;;;;;;;5.75;3.88;;;21.80;49.00;;;;;;4996491;28;20023;-73
2022/09/21 07:42:57;;;;;;;4.97;3.15;;;21.90;48.60;;;;;;4994928;28;20494;-73
2022/09/21 07:45:24;;;;;;;5.32;2.85;;;21.80;49.50;;;;;;4994838;28;20102;-72
2022/09/21 07:47:53;;;;;;;7.38;2.97;;;21.00;50.40;;;;;;4996799;28;20109;-72
2022/09/21 07:50:22;;;;;;;3.58;2.70;;;19.70;53.40;;;;;;5011584;28;20033;-72
2022/09/21 07:52:48;;;;;;;7.22;2.90;;;18.60;56.40;;;;;;4995058;28;20065;-72
2022/09/21 07:55:14;;;;;;;4.63;3.20;;;17.80;58.50;;;;;;4996626;28;20450;-72
2022/09/21 08:00:27;;;;;;;6.43;3.00;;;17.00;61.50;;;;;;4996422;28;20121;-72
2022/09/21 08:02:52;;;;;;;3.63;2.72;;;16.70;62.80;;;;;;4996166;28;20571;-72
2022/09/21 08:05:18;;;;;;;5.43;3.13;;;16.50;63.40;;;;;;4996111;28;20153;-72
2022/09/21 08:07:44;;;;;;;4.15;2.75;;;16.30;64.10;;;;;;4996255;28;20036;-72
2022/09/21 08:10:10;;;;;;;4.70;2.47;;;16.30;64.30;;;;;;5000516;28;20029;-72
2022/09/21 08:12:35;;;;;;;4.40;2.90;;;16.30;64.80;;;;;;4996587;28;20034;-72
2022/09/21 08:15:01;;;;;;;3.60;2.95;;;16.30;64.70;;;;;;4994677;28;20062;-72
2022/09/21 08:17:26;;;;;;;4.05;2.67;;;16.30;65.30;;;;;;4996045;28;20088;-72
2022/09/21 08:19:53;;;;;;;5.80;2.67;;;16.30;65.30;;;;;;4996006;28;20022;-72
2022/09/21 08:22:23;;;;;;;6.07;3.17;;;16.40;65.10;;;;;;5015465;28;20026;-72
2022/09/21 08:24:49;;;;;;;4.13;2.70;;;16.40;65.60;;;;;;5015622;28;20467;-72
2022/09/21 08:27:15;;;;;;;3.75;2.58;;;16.40;65.60;;;;;;5006024;28;20077;-72
2022/09/21 08:29:42;;;;;;;4.65;3.00;;;16.50;65.60;;;;;;5010878;28;20022;-72
2022/09/21 08:32:07;;;;;;;4.32;2.63;;;16.50;65.10;;;;;;5010919;28;20033;-72
2022/09/21 08:34:33;;;;;;;4.75;2.50;;;16.50;64.10;;;;;;4995736;28;20450;-72
2022/09/21 08:36:59;;;;;;;3.65;2.55;;;16.50;65.10;;;;;;4995962;28;20033;-72
2022/09/21 08:39:24;;;;;;;3.47;2.83;;;16.70;65.50;;;;;;4996258;28;20019;-72
2022/09/21 08:42:13;;;;;;;3.33;2.42;;;16.70;63.70;;;;;;4998499;28;20022;-72
2022/09/21 08:44:47;;;;;;;5.47;2.45;;;16.80;65.20;;;;;;5018445;28;20050;-72
2022/09/21 08:47:32;;;;;;;3.60;2.58;;;16.80;64.90;;;;;;5003864;28;20196;-72
2022/09/21 08:49:59;;;;;;;3.47;2.95;;;16.90;64.40;;;;;;4999585;28;20026;-72
2022/09/21 08:52:25;;;;;;;3.72;2.22;;;17.00;64.30;;;;;;5000091;28;20104;-72
2022/09/21 08:55:08;;;;;;;3.70;2.50;;;17.10;64.30;;;;;;4999481;28;20030;-72
2022/09/21 08:57:34;;;;;;;3.72;2.60;;;17.30;64.10;;;;;;4998395;28;20534;-72
2022/09/21 09:00:02;;;;;;;4.00;2.17;;;17.40;62.70;;;;;;4999857;28;20026;-72
2022/09/21 09:02:46;;;;;;;3.28;2.15;;;17.60;62.60;;;;;;5006156;28;20112;-72
2022/09/21 09:05:44;;;;;;;2.30;2.03;;;17.90;62.10;;;;;;5018959;28;20030;-72
2022/09/21 09:08:28;;;;;;;3.53;1.92;;;18.40;59.60;;;;;;5004580;28;20041;-72
2022/09/21 09:11:31;;;;;;;2.55;1.73;;;19.10;56.60;;;;;;5024808;28;20061;-72
2022/09/21 09:14:30;;;;;;;2.13;1.80;;;19.30;56.60;;;;;;5018855;28;20081;-72
2022/09/21 09:17:15;;;;;;;5.00;2.08;;;19.20;55.00;;;;;;5004456;28;20034;-72
2022/09/21 09:19:45;;;;;;;3.22;1.83;;;18.80;56.90;;;;;;4999290;28;20026;-72
2022/09/21 09:22:16;;;;;;;4.68;2.35;;;18.60;57.80;;;;;;4999314;28;20054;-72
2022/09/21 09:24:50;;;;;;;2.70;2.03;;;18.40;58.00;;;;;;5014273;28;20145;-72
2022/09/21 09:27:36;;;;;;;3.80;1.67;;;18.30;58.50;;;;;;4999237;28;20041;-72
2022/09/21 09:30:16;;;;;;;2.63;1.90;;;18.30;58.70;;;;;;5001921;28;20029;-72
2022/09/21 09:33:20;;;;;;;2.78;1.75;;;18.30;59.20;;;;;;5008422;28;20042;-72
2022/09/21 09:35:59;;;;;;;2.20;1.70;;;18.30;57.70;;;;;;5015997;28;20108;-72
2022/09/21 09:38:33;;;;;;;2.47;1.33;;;18.30;58.30;;;;;;5018511;28;20030;-72
2022/09/21 09:41:02;;;;;;;2.40;1.70;;;18.30;58.40;;;;;;5000057;28;20032;-72
2022/09/21 09:43:40;;;;;;;3.97;1.83;;;18.30;57.70;;;;;;5033275;28;20045;-72
2022/09/21 09:46:05;;;;;;;2.63;1.75;;;18.40;57.80;;;;;;5010512;28;20147;-72
2022/09/21 09:48:42;;;;;;;4.50;1.77;;;18.40;55.90;;;;;;4998527;28;20065;-72
2022/09/21 09:51:11;;;;;;;4.32;1.75;;;18.50;56.70;;;;;;5013496;28;20065;-72
2022/09/21 09:53:37;;;;;;;3.38;1.95;;;18.50;56.80;;;;;;4997770;28;20026;-72
2022/09/21 09:56:03;;;;;;;2.17;1.70;;;18.50;56.60;;;;;;4998087;28;20125;-72
2022/09/21 09:58:36;;;;;;;3.63;1.38;;;18.60;54.80;;;;;;4998731;28;20098;-72
2022/09/21 10:01:02;;;;;;;4.93;1.42;;;18.70;55.70;;;;;;4996905;28;20122;-72
2022/09/21 10:03:28;;;;;;;2.47;1.20;;;18.80;52.90;;;;;;4998244;28;20026;-72
2022/09/21 10:05:54;;;;;;;2.38;1.25;;;19.00;52.20;;;;;;5013542;28;20026;-72
2022/09/21 10:08:38;;;;;;;2.85;1.45;;;19.10;52.60;;;;;;4998251;28;20034;-72
2022/09/21 10:11:04;;;;;;;2.13;1.23;;;19.10;51.70;;;;;;5009752;28;20069;-72
2022/09/21 10:13:32;;;;;;;2.63;1.60;;;19.00;51.20;;;;;;5007094;28;20042;-72
2022/09/21 10:16:05;;;;;;;3.55;1.27;;;19.00;52.80;;;;;;4997818;28;20026;-72
2022/09/21 10:18:33;;;;;;;2.60;1.35;;;19.00;52.50;;;;;;4998525;28;20114;-72
2022/09/21 10:21:05;;;;;;;1.85;0.90;;;19.00;52.40;;;;;;4997929;28;20050;-72
2022/09/21 10:23:32;;;;;;;6.78;1.13;;;19.10;52.30;;;;;;4997941;28;20057;-72
2022/09/21 10:26:06;;;;;;;1.80;1.08;;;19.10;51.50;;;;;;4998108;28;20088;-73
2022/09/21 10:28:32;;;;;;;1.92;0.95;;;19.20;51.90;;;;;;4997825;28;20030;-72
2022/09/21 10:31:36;;;;;;;3.22;1.40;;;19.10;51.30;;;;;;4995674;28;20038;-72
2022/09/21 10:34:15;;;;;;;3.08;1.30;;;19.10;50.70;;;;;;4975931;28;20039;-72
2022/09/21 10:36:50;;;;;;;2.95;1.13;;;19.20;49.80;;;;;;4997887;28;20069;-72
2022/09/21 10:39:21;;;;;;;2.30;1.15;;;19.20;50.90;;;;;;4997530;28;20049;-72
2022/09/21 10:42:00;;;;;;;4.20;1.23;;;19.30;50.50;;;;;;4997466;28;20029;-72
2022/09/21 10:44:33;;;;;;;2.70;0.98;;;19.30;50.70;;;;;;4997895;28;20417;-72
2022/09/21 10:47:12;;;;;;;2.25;1.10;;;19.30;49.50;;;;;;5014176;28;20048;-72
2022/09/21 10:49:55;;;;;;;3.15;0.88;;;19.30;50.60;;;;;;5021440;28;20489;-72
2022/09/21 10:52:24;;;;;;;2.33;0.95;;;19.40;50.10;;;;;;5013144;28;20033;-72
2022/09/21 10:54:54;;;;;;;2.13;1.20;;;19.50;48.90;;;;;;4997283;28;20030;-72
2022/09/21 10:57:22;;;;;;;;;;;19.40;48.00;;;;;;4997587;28;20023;-72
2022/09/21 10:59:47;;;;;;;3.22;1.00;;;19.50;47.90;;;;;;4997572;28;19917;-72
2022/09/21 11:02:34;;;;;;;2.60;1.10;;;19.50;48.30;;;;;;5012153;28;20037;-72
2022/09/21 11:05:14;;;;;;;1.52;0.90;;;19.60;48.70;;;;;;4996128;28;20027;-72
2022/09/21 11:07:40;;;;;;;;;;;19.50;46.80;;;;;;4995584;28;20058;-72
2022/09/21 11:10:12;;;;;;;2.08;1.05;;;19.70;48.70;;;;;;4999666;28;19935;-72
2022/09/21 11:13:02;;;;;;;3.78;1.02;;;19.80;48.50;;;;;;4997226;28;20378;-72
2022/09/21 11:15:50;;;;;;;1.65;0.82;;;19.80;48.10;;;;;;5012012;28;20034;-72
2022/09/21 11:18:34;;;;;;;1.90;0.80;;;19.80;47.10;;;;;;5012296;28;20027;-72
2022/09/21 11:21:33;;;;;;;1.55;0.80;;;19.80;46.70;;;;;;5012016;28;20037;-72
2022/09/21 11:24:29;;;;;;;1.80;0.90;;;19.80;46.70;;;;;;4995530;28;20528;-72
2022/09/21 11:27:35;;;;;;;3.30;1.00;;;19.90;46.90;;;;;;5011701;28;20045;-72
2022/09/21 11:30:06;;;;;;;1.75;0.77;;;19.90;46.40;;;;;;4976372;28;20130;-72
2022/09/21 11:32:43;;;;;;;1.30;0.90;;;20.00;47.50;;;;;;4996946;28;20026;-72
2022/09/21 11:35:28;;;;;;;3.33;1.13;;;20.10;46.60;;;;;;4996682;28;20034;-72
2022/09/21 11:38:03;;;;;;;2.65;0.80;;;20.10;46.00;;;;;;4996405;28;20027;-73
2022/09/21 11:40:46;;;;;;;1.70;0.70;;;20.10;45.80;;;;;;4997174;28;20030;-72
2022/09/21 11:43:59;;;;;;;2.85;0.77;;;20.20;46.00;;;;;;5011565;28;20124;-73
2022/09/21 11:46:42;;;;;;;1.80;0.70;;;20.20;45.70;;;;;;4963387;28;20137;-72
2022/09/21 11:49:26;;;;;;;1.50;0.90;;;20.20;45.60;;;;;;5011445;28;20034;-72
2022/09/21 11:52:25;;;;;;;4.85;1.33;;;20.30;46.40;;;;;;5011479;28;20037;-72
2022/09/21 11:55:22;;;;;;;1.52;0.77;;;20.30;45.80;;;;;;4996360;28;20038;-72
2022/09/21 11:58:10;;;;;;;2.00;0.85;;;20.40;46.30;;;;;;4996166;28;20397;-72
2022/09/21 12:00:51;;;;;;;1.15;0.70;;;20.40;45.80;;;;;;4996430;28;20023;-72
2022/09/21 12:03:37;;;;;;;1.58;0.90;;;20.50;46.10;;;;;;4996572;28;20470;-72
2022/09/21 12:06:02;;;;;;;1.95;0.73;;;20.60;45.80;;;;;;4996238;28;20036;-72
2022/09/21 12:08:34;;;;;;;2.10;0.90;;;20.60;46.10;;;;;;4996144;28;20034;-72
2022/09/21 12:11:35;;;;;;;1.30;0.68;;;20.70;46.20;;;;;;5007466;28;20128;-72
2022/09/21 12:14:32;;;;;;;2.28;0.90;;;20.70;45.20;;;;;;4996227;28;20031;-72
2022/09/21 12:17:14;;;;;;;4.68;0.77;;;20.80;45.30;;;;;;4979656;28;20042;-72
2022/09/21 12:20:07;;;;;;;0.85;0.70;;;20.80;44.60;;;;;;5015864;28;20489;-72
2022/09/21 12:22:37;;;;;;;1.80;0.82;;;20.80;44.40;;;;;;4999666;28;20054;-72
2022/09/21 12:25:17;;;;;;;8.23;1.33;;;20.80;44.70;;;;;;5000483;28;20027;-72
2022/09/21 12:27:46;;;;;;;2.15;0.70;;;20.90;45.20;;;;;;4999948;28;20034;-72
2022/09/21 12:30:18;;;;;;;1.97;1.00;;;20.90;44.70;;;;;;5015092;28;20030;-72
2022/09/21 12:32:53;;;;;;;1.85;0.88;;;20.90;45.20;;;;;;4999496;28;20257;-72
2022/09/21 12:35:33;;;;;;;1.67;0.70;;;20.90;45.20;;;;;;5015309;28;20413;-72
2022/09/21 12:38:08;;;;;;;1.85;0.70;;;21.00;43.30;;;;;;4999738;28;20030;-72
2022/09/21 12:40:50;;;;;;;1.73;0.73;;;21.00;43.70;;;;;;5016921;28;20029;-73
2022/09/21 12:43:37;;;;;;;1.77;0.57;;;21.00;43.50;;;;;;5017399;28;20030;-73
2022/09/21 12:46:38;;;;;;;2.35;0.88;;;21.10;44.00;;;;;;5018179;28;20153;-73
2022/09/21 12:49:16;;;;;;;5.13;0.68;;;21.10;43.50;;;;;;4978837;28;20046;-73
2022/09/21 12:51:51;;;;;;;0.90;0.50;;;21.10;42.90;;;;;;5012596;28;20052;-73
2022/09/21 12:54:38;;;;;;;1.38;0.63;;;21.20;43.40;;;;;;5015106;28;20161;-73
2022/09/21 12:58:11;;;;;;;1.42;0.45;;;21.20;42.70;;;;;;5022128;28;20043;-73
2022/09/21 13:00:48;;;;;;;1.13;0.50;;;21.20;42.90;;;;;;4893458;28;20634;-73
2022/09/21 13:03:29;;;;;;;0.85;0.40;;;21.30;43.50;;;;;;5018411;28;20045;-72
2022/09/21 13:06:13;;;;;;;1.67;1.20;;;21.30;42.80;;;;;;5028231;28;20101;-73
2022/09/21 13:08:42;;;;;;;1.58;0.70;;;21.30;42.00;;;;;;5023952;28;20033;-73
2022/09/21 13:11:09;;;;;;;1.03;0.57;;;21.30;42.10;;;;;;5024315;28;20515;-73
2022/09/21 13:13:51;;;;;;;0.90;0.40;;;21.30;42.10;;;;;;5028565;28;20370;-73
2022/09/21 13:16:37;;;;;;;2.28;0.50;;;21.40;42.90;;;;;;5034531;28;20026;-73
2022/09/21 13:19:12;;;;;;;1.45;0.50;;;21.40;42.30;;;;;;5024364;28;20068;-72
2022/09/21 13:21:38;;;;;;;2.55;0.50;;;21.40;41.30;;;;;;5024330;28;20113;-75
2022/09/21 13:24:12;;;;;;;1.88;0.50;;;21.40;42.20;;;;;;5010240;28;20019;-72